createdAt,value
2019-02-16T00:01:27.728Z,99.90
2019-02-16T00:03:56.019Z,99.90
2019-02-16T00:06:24.359Z,99.90
2019-02-16T00:08:52.635Z,99.90
2019-02-16T00:11:20.899Z,99.90
2019-02-16T00:13:49.188Z,99.90
2019-02-16T00:16:17.486Z,99.90
2019-02-16T00:18:45.770Z,99.90
2019-02-16T00:21:14.109Z,99.90
2019-02-16T00:23:42.356Z,99.90
2019-02-16T00:26:10.643Z,99.90
2019-02-16T00:28:38.915Z,99.90
2019-02-16T00:31:07.199Z,99.90
2019-02-16T00:33:35.454Z,99.90
2019-02-16T00:36:03.820Z,99.90
2019-02-16T00:38:32.083Z,99.90
2019-02-16T00:41:00.389Z,99.90
2019-02-16T00:43:28.684Z,99.90
2019-02-16T00:45:56.941Z,99.90
2019-02-16T00:48:25.295Z,99.90
2019-02-16T00:50:53.571Z,99.90
2019-02-16T00:53:21.850Z,99.90
2019-02-16T00:55:50.125Z,99.90
2019-02-16T00:58:18.388Z,99.90
2019-02-16T01:00:46.688Z,99.90
2019-02-16T01:03:14.960Z,99.90
2019-02-16T01:05:43.215Z,99.90
2019-02-16T01:08:11.493Z,99.90
2019-02-16T01:10:39.759Z,99.90
2019-02-16T01:13:08.023Z,99.90
2019-02-16T01:15:36.293Z,99.90
2019-02-16T01:18:04.579Z,99.90
2019-02-16T01:20:32.855Z,99.90
2019-02-16T01:23:01.206Z,99.90
2019-02-16T01:25:29.468Z,99.90
2019-02-16T01:27:57.753Z,99.90
2019-02-16T01:30:26.018Z,99.90
2019-02-16T01:32:54.298Z,99.90
2019-02-16T01:35:22.569Z,99.90
2019-02-16T01:37:50.861Z,99.90
2019-02-16T01:40:19.113Z,99.90
2019-02-16T01:42:47.368Z,99.90
2019-02-16T01:45:15.656Z,99.90
2019-02-16T01:47:43.912Z,99.90
2019-02-16T01:50:12.200Z,99.90
2019-02-16T01:52:40.509Z,99.90
2019-02-16T01:55:09.585Z,99.90
2019-02-16T01:57:37.828Z,99.90
2019-02-16T02:00:07.934Z,99.90
2019-02-16T02:02:36.220Z,99.90
2019-02-16T02:05:05.235Z,99.90
2019-02-16T02:07:33.561Z,99.90
2019-02-16T02:10:01.819Z,99.90
2019-02-16T02:12:30.079Z,99.90
2019-02-16T02:14:58.445Z,99.90
2019-02-16T02:17:26.703Z,99.90
2019-02-16T02:19:54.985Z,99.90
2019-02-16T02:22:23.250Z,99.90
2019-02-16T02:24:51.515Z,99.90
2019-02-16T02:27:19.775Z,99.90
2019-02-16T02:29:48.064Z,99.90
2019-02-16T02:32:16.359Z,99.90
2019-02-16T02:34:44.610Z,99.90
2019-02-16T02:37:12.892Z,99.90
2019-02-16T02:39:41.200Z,99.90
2019-02-16T02:42:09.534Z,99.90
2019-02-16T02:44:37.822Z,99.90
2019-02-16T02:47:06.149Z,99.90
2019-02-16T02:49:34.415Z,99.90
2019-02-16T02:52:02.702Z,99.90
2019-02-16T02:54:30.958Z,99.90
2019-02-16T02:56:59.239Z,99.90
2019-02-16T02:59:27.507Z,99.90
2019-02-16T03:01:55.791Z,99.90
2019-02-16T03:04:24.124Z,99.90
2019-02-16T03:06:52.433Z,99.90
2019-02-16T03:09:20.694Z,99.90
2019-02-16T03:11:48.973Z,99.90
2019-02-16T03:14:17.240Z,99.90
2019-02-16T03:16:45.519Z,99.90
2019-02-16T03:19:13.792Z,99.90
2019-02-16T03:21:42.091Z,99.90
2019-02-16T03:24:10.350Z,99.90
2019-02-16T03:26:42.387Z,99.90
2019-02-16T03:29:37.708Z,99.90
2019-02-16T03:32:24.145Z,99.90
2019-02-16T03:35:07.627Z,99.90
2019-02-16T03:37:53.915Z,99.90
2019-02-16T03:40:22.275Z,99.90
2019-02-16T03:42:50.618Z,99.90
2019-02-16T03:45:18.908Z,99.90
2019-02-16T03:47:47.196Z,99.90
2019-02-16T03:50:15.457Z,99.90
2019-02-16T03:52:43.753Z,99.90
2019-02-16T03:55:11.992Z,99.90
2019-02-16T03:57:40.279Z,99.90
2019-02-16T04:00:09.774Z,99.90
2019-02-16T04:02:38.066Z,99.90
2019-02-16T04:05:07.059Z,99.90
2019-02-16T04:07:35.340Z,99.90
2019-02-16T04:10:04.748Z,99.90
2019-02-16T04:12:33.124Z,99.90
2019-02-16T04:15:01.376Z,99.90
2019-02-16T04:17:29.712Z,99.90
2019-02-16T04:19:57.995Z,99.90
2019-02-16T04:22:26.271Z,99.90
2019-02-16T04:24:54.537Z,99.90
2019-02-16T04:27:22.795Z,99.90
2019-02-16T04:29:51.074Z,99.90
2019-02-16T04:32:19.343Z,99.90
2019-02-16T04:34:47.669Z,99.90
2019-02-16T04:37:15.960Z,99.90
2019-02-16T04:39:44.252Z,99.90
2019-02-16T04:42:12.523Z,99.90
2019-02-16T04:44:40.802Z,99.90
2019-02-16T04:47:09.068Z,99.90
2019-02-16T04:49:37.332Z,99.90
2019-02-16T04:52:05.588Z,99.90
2019-02-16T04:54:33.888Z,99.90
2019-02-16T04:57:02.144Z,99.90
2019-02-16T04:59:30.439Z,99.90
2019-02-16T05:01:58.698Z,99.90
2019-02-16T05:04:26.959Z,99.90
2019-02-16T05:06:55.229Z,99.90
2019-02-16T05:09:23.504Z,99.90
2019-02-16T05:11:51.761Z,99.90
2019-02-16T05:14:20.018Z,99.90
2019-02-16T05:16:48.298Z,99.90
2019-02-16T05:19:16.560Z,99.90
2019-02-16T05:21:44.855Z,99.90
2019-02-16T05:24:13.110Z,99.90
2019-02-16T05:26:41.399Z,99.90
2019-02-16T05:29:09.650Z,99.90
2019-02-16T05:31:37.943Z,99.90
2019-02-16T05:34:06.208Z,99.90
2019-02-16T05:36:34.500Z,99.90
2019-02-16T05:39:03.718Z,99.90
2019-02-16T05:41:32.005Z,99.90
2019-02-16T05:44:00.332Z,99.90
2019-02-16T05:46:28.604Z,99.90
2019-02-16T05:48:56.868Z,99.90
2019-02-16T05:51:25.150Z,99.90
2019-02-16T05:53:53.412Z,99.90
2019-02-16T05:56:21.688Z,99.90
2019-02-16T05:58:49.932Z,99.90
2019-02-16T06:01:18.237Z,99.90
2019-02-16T06:03:46.498Z,99.90
2019-02-16T06:06:14.743Z,99.90
2019-02-16T06:08:43.029Z,99.90
2019-02-16T06:11:11.289Z,99.90
2019-02-16T06:13:39.618Z,99.90
2019-02-16T06:16:07.864Z,99.90
2019-02-16T06:18:36.203Z,99.90
2019-02-16T06:21:04.478Z,99.90
2019-02-16T06:23:32.760Z,99.90
2019-02-16T06:26:01.044Z,99.90
2019-02-16T06:28:29.473Z,99.90
2019-02-16T06:30:57.734Z,99.90
2019-02-16T06:33:26.023Z,99.90
2019-02-16T06:35:55.906Z,99.90
2019-02-16T06:38:24.199Z,99.90
2019-02-16T06:40:52.482Z,99.90
2019-02-16T06:43:20.839Z,99.90
2019-02-16T06:45:49.097Z,99.90
2019-02-16T06:48:17.447Z,99.90
2019-02-16T06:50:45.719Z,99.90
2019-02-16T06:53:14.002Z,99.90
2019-02-16T06:55:43.899Z,99.90
2019-02-16T06:58:12.169Z,99.90
2019-02-16T07:00:40.402Z,99.90
2019-02-16T07:03:08.704Z,99.90
2019-02-16T07:05:36.972Z,99.90
2019-02-16T07:08:05.246Z,99.90
2019-02-16T07:10:33.521Z,99.90
2019-02-16T07:13:01.807Z,99.90
2019-02-16T07:15:30.263Z,99.90
2019-02-16T07:18:08.717Z,99.90
2019-02-16T07:20:37.071Z,99.90
2019-02-16T07:23:05.377Z,99.90
2019-02-16T07:25:33.655Z,99.90
2019-02-16T07:28:01.927Z,99.90
2019-02-16T07:30:30.208Z,99.90
2019-02-16T07:32:58.518Z,99.90
2019-02-16T07:35:26.817Z,99.90
2019-02-16T07:37:55.211Z,99.90
2019-02-16T07:40:23.508Z,99.90
2019-02-16T07:42:55.487Z,99.90
2019-02-16T07:45:42.174Z,99.90
2019-02-16T07:48:12.075Z,99.90
2019-02-16T07:50:42.035Z,99.90
2019-02-16T07:53:31.175Z,99.90
2019-02-16T07:55:55.731Z,99.90
2019-02-16T07:58:25.633Z,99.90
2019-02-16T08:01:11.851Z,99.90
2019-02-16T08:03:47.513Z,99.90
2019-02-16T08:06:23.406Z,99.90
2019-02-16T08:08:55.982Z,99.90
2019-02-16T08:11:31.678Z,99.90
2019-02-16T08:14:13.694Z,99.90
2019-02-16T08:16:43.626Z,99.90
2019-02-16T08:19:13.518Z,99.90
2019-02-16T08:21:49.141Z,99.90
2019-02-16T08:24:30.503Z,99.90
2019-02-16T08:27:16.662Z,99.90
2019-02-16T08:29:52.320Z,99.90
2019-02-16T08:32:24.907Z,99.90
2019-02-16T08:34:54.805Z,99.90
2019-02-16T08:37:41.004Z,99.90
2019-02-16T08:40:16.853Z,99.90
2019-02-16T08:42:58.584Z,99.90
2019-02-16T08:45:34.230Z,99.90
2019-02-16T08:48:12.878Z,99.90
2019-02-16T08:50:42.774Z,99.90
2019-02-16T08:53:29.036Z,99.90
2019-02-16T08:56:11.017Z,99.90
2019-02-16T08:58:43.707Z,99.90
2019-02-16T09:01:13.619Z,99.90
2019-02-16T09:03:43.561Z,99.90
2019-02-16T09:06:29.717Z,99.90
2019-02-16T09:09:08.617Z,99.90
2019-02-16T09:11:54.896Z,99.90
2019-02-16T09:14:42.958Z,99.90
2019-02-16T09:17:13.441Z,99.90
2019-02-16T09:19:49.223Z,99.90
2019-02-16T09:22:19.117Z,99.90
2019-02-16T09:24:49.048Z,99.90
2019-02-16T09:27:18.953Z,99.90
2019-02-16T09:29:51.866Z,99.90
2019-02-16T09:32:27.293Z,99.90
2019-02-16T09:34:57.228Z,99.90
2019-02-16T09:37:35.904Z,99.90
2019-02-16T09:40:12.543Z,99.90
2019-02-16T09:42:45.401Z,99.90
2019-02-16T09:45:18.153Z,99.90
2019-02-16T09:47:50.996Z,99.90
2019-02-16T09:50:23.627Z,99.90
2019-02-16T09:52:59.275Z,99.90
2019-02-16T09:55:41.033Z,99.90
2019-02-16T09:58:23.111Z,99.90
2019-02-16T10:00:56.066Z,99.90
2019-02-16T10:03:32.068Z,99.90
2019-02-16T10:06:08.241Z,99.90
2019-02-16T10:08:43.993Z,99.90
2019-02-16T10:11:26.099Z,99.90
2019-02-16T10:13:58.991Z,99.90
2019-02-16T10:16:28.953Z,99.90
2019-02-16T10:19:04.612Z,99.90
2019-02-16T10:21:43.417Z,98.20
2019-02-16T10:24:28.493Z,98.10
2019-02-16T10:27:04.449Z,96.80
2019-02-16T10:29:52.291Z,96.20
2019-02-16T10:32:36.786Z,94.70
2019-02-16T10:35:07.212Z,93.00
2019-02-16T10:37:52.087Z,92.00
2019-02-16T10:40:24.507Z,86.30
2019-02-16T10:43:12.026Z,91.40
2019-02-16T10:45:42.047Z,90.40
2019-02-16T10:48:14.967Z,90.10
2019-02-16T10:50:47.417Z,87.70
2019-02-16T10:53:32.452Z,86.80
2019-02-16T10:56:18.793Z,82.70
2019-02-16T10:58:57.571Z,80.60
2019-02-16T11:01:43.426Z,82.50
2019-02-16T11:04:13.366Z,82.10
2019-02-16T11:06:46.346Z,76.20
2019-02-16T11:09:22.074Z,67.50
2019-02-16T11:11:51.967Z,60.00
2019-02-16T11:14:27.323Z,56.40
2019-02-16T11:16:57.293Z,56.30
2019-02-16T11:19:32.835Z,53.10
2019-02-16T11:22:14.857Z,50.10
2019-02-16T11:25:00.983Z,48.10
2019-02-16T11:27:30.897Z,46.50
2019-02-16T11:30:00.818Z,45.60
2019-02-16T11:32:45.951Z,46.80
2019-02-16T11:35:24.906Z,44.50
2019-02-16T11:38:03.663Z,42.90
2019-02-16T11:40:33.601Z,41.30
2019-02-16T11:43:15.593Z,39.40
2019-02-16T11:45:57.429Z,39.90
2019-02-16T11:48:30.068Z,38.90
2019-02-16T11:51:00.033Z,39.30
2019-02-16T11:53:32.758Z,37.20
2019-02-16T11:56:18.957Z,38.30
2019-02-16T11:59:05.192Z,36.90
2019-02-16T12:01:35.127Z,35.90
2019-02-16T12:04:05.032Z,34.30
2019-02-16T12:06:34.971Z,34.00
2019-02-16T12:09:10.601Z,33.00
2019-02-16T12:11:55.361Z,34.20
2019-02-16T12:14:25.303Z,33.60
2019-02-16T12:17:01.235Z,33.30
2019-02-16T12:19:43.002Z,33.00
2019-02-16T12:22:28.604Z,32.60
2019-02-16T12:25:07.203Z,30.90
2019-02-16T12:27:43.106Z,30.40
2019-02-16T12:30:15.520Z,30.30
2019-02-16T12:32:54.146Z,29.10
2019-02-16T12:35:36.174Z,28.80
2019-02-16T12:38:11.934Z,28.40
2019-02-16T12:40:41.858Z,27.60
2019-02-16T12:43:23.763Z,28.30
2019-02-16T12:46:09.734Z,28.30
2019-02-16T12:48:39.631Z,28.10
2019-02-16T12:51:21.126Z,28.20
2019-02-16T12:53:59.745Z,28.20
2019-02-16T12:56:38.633Z,27.90
2019-02-16T12:59:08.618Z,27.90
2019-02-16T13:01:46.996Z,28.00
2019-02-16T13:04:34.759Z,28.00
2019-02-16T13:07:07.172Z,28.20
2019-02-16T13:09:37.063Z,27.50
2019-02-16T13:12:23.224Z,27.80
2019-02-16T13:15:04.969Z,27.90
2019-02-16T13:17:34.902Z,27.70
2019-02-16T13:20:04.886Z,27.70
2019-02-16T13:22:46.594Z,27.90
2019-02-16T13:25:31.343Z,27.90
2019-02-16T13:28:01.261Z,27.70
2019-02-16T13:30:34.100Z,28.20
2019-02-16T13:33:12.924Z,27.90
2019-02-16T13:35:45.803Z,27.60
2019-02-16T13:38:21.858Z,27.10
2019-02-16T13:40:51.761Z,27.20
2019-02-16T13:43:27.646Z,27.30
2019-02-16T13:46:13.838Z,27.80
2019-02-16T13:48:46.776Z,28.80
2019-02-16T13:51:16.757Z,27.70
2019-02-16T13:53:49.658Z,27.50
2019-02-16T13:56:34.183Z,27.30
2019-02-16T13:59:04.190Z,27.60
2019-02-16T14:01:34.096Z,28.60
2019-02-16T14:04:21.886Z,28.50
2019-02-16T14:07:03.453Z,28.70
2019-02-16T14:09:39.171Z,28.50
2019-02-16T14:12:20.883Z,29.10
2019-02-16T14:14:50.808Z,28.90
2019-02-16T14:17:26.566Z,29.80
2019-02-16T14:19:54.848Z,28.90
2019-02-16T14:22:23.391Z,28.80
2019-02-16T14:24:53.390Z,28.50
2019-02-16T14:27:21.658Z,28.80
2019-02-16T14:29:49.943Z,28.70
2019-02-16T14:32:18.250Z,28.70
2019-02-16T14:34:46.515Z,28.90
2019-02-16T14:37:26.056Z,28.80
2019-02-16T14:39:54.540Z,28.50
2019-02-16T14:42:22.865Z,28.40
2019-02-16T14:44:51.121Z,28.20
2019-02-16T14:47:19.416Z,29.40
2019-02-16T14:49:47.693Z,27.80
2019-02-16T14:52:16.051Z,28.60
2019-02-16T14:54:44.328Z,29.00
2019-02-16T14:57:12.697Z,30.90
2019-02-16T14:59:40.939Z,29.60
2019-02-16T15:02:09.247Z,29.90
2019-02-16T15:04:37.572Z,29.30
2019-02-16T15:07:05.877Z,29.30
2019-02-16T15:09:34.139Z,29.60
2019-02-16T15:12:02.510Z,30.00
2019-02-16T15:14:30.831Z,31.20
2019-02-16T15:16:59.137Z,31.00
2019-02-16T15:19:27.412Z,32.50
2019-02-16T15:21:55.766Z,33.60
2019-02-16T15:24:24.027Z,34.70
2019-02-16T15:26:52.310Z,36.00
2019-02-16T15:29:22.184Z,36.60
2019-02-16T15:31:50.647Z,37.40
2019-02-16T15:34:18.952Z,38.60
2019-02-16T15:36:47.355Z,39.00
2019-02-16T15:39:15.651Z,39.50
2019-02-16T15:41:43.965Z,40.20
2019-02-16T15:44:12.263Z,41.40
2019-02-16T15:46:40.525Z,41.90
2019-02-16T15:49:08.833Z,42.30
2019-02-16T15:51:37.140Z,42.50
2019-02-16T15:54:05.436Z,43.60
2019-02-16T15:56:33.712Z,43.90
2019-02-16T15:59:02.058Z,45.30
2019-02-16T16:01:30.370Z,45.00
2019-02-16T16:03:58.794Z,46.30
2019-02-16T16:06:27.103Z,45.90
2019-02-16T16:09:03.163Z,46.70
2019-02-16T16:11:42.130Z,47.70
2019-02-16T16:14:14.867Z,49.50
2019-02-16T16:16:47.336Z,52.60
2019-02-16T16:19:17.282Z,54.90
2019-02-16T16:21:47.183Z,56.90
2019-02-16T16:24:19.841Z,58.00
2019-02-16T16:27:04.551Z,59.40
2019-02-16T16:29:43.309Z,63.70
2019-02-16T16:32:13.220Z,66.20
2019-02-16T16:34:49.105Z,68.20
2019-02-16T16:37:35.076Z,77.40
2019-02-16T16:40:10.970Z,83.50
2019-02-16T16:42:49.880Z,90.30
2019-02-16T16:45:22.851Z,93.20
2019-02-16T16:48:10.762Z,94.70
2019-02-16T16:50:43.602Z,96.40
2019-02-16T16:53:19.275Z,98.10
2019-02-16T16:55:49.186Z,98.70
2019-02-16T16:58:33.743Z,99.80
2019-02-16T17:01:03.685Z,99.90
2019-02-16T17:03:36.400Z,99.90
2019-02-16T17:06:22.427Z,99.90
2019-02-16T17:08:52.343Z,99.90
2019-02-16T17:11:22.367Z,99.90
2019-02-16T17:13:58.149Z,99.90
2019-02-16T17:16:46.046Z,99.90
2019-02-16T17:19:15.942Z,99.90
2019-02-16T17:21:51.733Z,99.90
2019-02-16T17:24:27.368Z,99.90
2019-02-16T17:26:59.986Z,99.90
2019-02-16T17:29:35.960Z,99.90
2019-02-16T17:32:05.945Z,99.90
2019-02-16T17:34:38.569Z,99.90
2019-02-16T17:37:24.494Z,99.90
2019-02-16T17:40:10.685Z,99.90
2019-02-16T17:42:49.667Z,99.90
2019-02-16T17:45:28.630Z,99.90
2019-02-16T17:48:04.526Z,99.90
2019-02-16T17:50:34.447Z,99.90
2019-02-16T17:53:16.385Z,99.90
2019-02-16T17:55:48.747Z,99.90
2019-02-16T17:58:18.706Z,99.90
2019-02-16T18:00:51.354Z,99.90
2019-02-16T18:03:36.082Z,99.90
2019-02-16T18:06:08.895Z,99.90
2019-02-16T18:08:47.519Z,99.90
2019-02-16T18:11:32.540Z,99.90
2019-02-16T18:14:08.548Z,99.90
2019-02-16T18:16:54.855Z,99.90
2019-02-16T18:19:24.784Z,99.90
2019-02-16T18:21:54.695Z,99.90
2019-02-16T18:24:40.774Z,99.90
2019-02-16T18:27:10.689Z,99.90
2019-02-16T18:29:40.713Z,99.90
2019-02-16T18:32:16.394Z,99.90
2019-02-16T18:35:04.508Z,99.90
2019-02-16T18:37:37.301Z,99.90
2019-02-16T18:40:22.770Z,99.90
2019-02-16T18:43:08.695Z,99.90
2019-02-16T18:45:41.303Z,99.90
2019-02-16T18:48:14.007Z,99.90
2019-02-16T18:50:46.886Z,99.90
2019-02-16T18:53:16.886Z,99.90
2019-02-16T18:55:52.626Z,99.90
2019-02-16T18:58:31.317Z,99.90
2019-02-16T19:01:01.272Z,99.90
2019-02-16T19:03:48.897Z,99.90
2019-02-16T19:06:36.528Z,99.90
2019-02-16T19:09:15.514Z,99.90
2019-02-16T19:12:00.284Z,99.90
2019-02-16T19:14:36.213Z,99.90
2019-02-16T19:17:08.694Z,99.90
2019-02-16T19:19:47.451Z,99.90
2019-02-16T19:22:20.164Z,99.90
2019-02-16T19:24:55.895Z,99.90
2019-02-16T19:27:40.677Z,99.90
2019-02-16T19:30:16.885Z,99.90
2019-02-16T19:32:46.907Z,99.90
2019-02-16T19:35:25.787Z,99.90
2019-02-16T19:38:13.658Z,99.90
2019-02-16T19:40:46.245Z,99.90
2019-02-16T19:43:24.943Z,99.90
2019-02-16T19:46:12.965Z,99.90
2019-02-16T19:48:45.737Z,99.90
2019-02-16T19:51:15.635Z,99.90
2019-02-16T19:53:48.362Z,99.90
2019-02-16T19:56:21.228Z,99.90
2019-02-16T19:59:05.963Z,99.90
2019-02-16T20:01:41.960Z,99.90
2019-02-16T20:04:26.717Z,99.90
2019-02-16T20:07:12.542Z,99.90
2019-02-16T20:09:44.922Z,99.90
2019-02-16T20:12:14.841Z,99.90
2019-02-16T20:14:47.585Z,99.90
2019-02-16T20:17:17.496Z,99.90
2019-02-16T20:19:47.441Z,99.90
2019-02-16T20:22:17.416Z,99.90
2019-02-16T20:25:03.434Z,99.90
2019-02-16T20:27:37.633Z,99.90
2019-02-16T20:30:17.821Z,99.90
2019-02-16T20:32:50.707Z,99.90
2019-02-16T20:35:32.323Z,99.90
2019-02-16T20:38:08.081Z,99.90
2019-02-16T20:40:38.035Z,99.90
2019-02-16T20:43:10.924Z,99.90
2019-02-16T20:45:43.279Z,99.90
2019-02-16T20:48:13.160Z,99.90
2019-02-16T20:50:43.085Z,99.90
2019-02-16T20:53:13.006Z,99.90
2019-02-16T20:55:42.932Z,99.90
2019-02-16T20:58:18.619Z,99.90
2019-02-16T21:00:48.619Z,99.90
2019-02-16T21:03:18.542Z,99.90
2019-02-16T21:06:03.368Z,99.90
2019-02-16T21:08:42.026Z,99.90
2019-02-16T21:11:11.987Z,99.90
2019-02-16T21:13:41.895Z,99.90
2019-02-16T21:16:14.719Z,99.90
2019-02-16T21:18:53.344Z,99.90
2019-02-16T21:21:31.991Z,99.90
2019-02-16T21:24:01.879Z,99.90
2019-02-16T21:26:37.128Z,99.90
2019-02-16T21:29:15.380Z,99.90
2019-02-16T21:31:45.325Z,99.90
2019-02-16T21:34:15.224Z,99.90
2019-02-16T21:36:48.131Z,99.90
2019-02-16T21:39:20.791Z,99.90
2019-02-16T21:41:56.788Z,99.90
2019-02-16T21:44:26.676Z,99.90
2019-02-16T21:47:12.621Z,99.90
2019-02-16T21:49:54.531Z,99.90
2019-02-16T21:52:40.702Z,99.90
2019-02-16T21:55:28.564Z,99.90
2019-02-16T21:58:13.558Z,99.90
2019-02-16T22:00:46.126Z,99.90
2019-02-16T22:03:18.758Z,99.90
2019-02-16T22:06:00.229Z,99.90
2019-02-16T22:08:48.076Z,99.90
2019-02-16T22:11:17.964Z,99.90
2019-02-16T22:13:46.265Z,99.90
2019-02-16T22:16:14.519Z,99.90
2019-02-16T22:18:42.824Z,99.90
2019-02-16T22:21:11.089Z,99.90
2019-02-16T22:23:39.392Z,99.90
2019-02-16T22:26:07.776Z,99.90
2019-02-16T22:28:36.092Z,99.90
2019-02-16T22:31:04.428Z,99.90
2019-02-16T22:33:32.772Z,99.90
2019-02-16T22:36:01.077Z,99.90
2019-02-16T22:38:29.339Z,99.90
2019-02-16T22:40:57.634Z,99.90
2019-02-16T22:43:25.909Z,99.90
2019-02-16T22:45:54.181Z,99.90
2019-02-16T22:48:22.449Z,99.90
2019-02-16T22:50:50.810Z,99.90
2019-02-16T22:53:19.075Z,99.90
2019-02-16T22:55:47.367Z,99.90
2019-02-16T22:58:15.695Z,99.90
2019-02-16T23:00:45.054Z,99.90
2019-02-16T23:03:13.619Z,99.90
2019-02-16T23:05:41.911Z,99.90
2019-02-16T23:08:10.185Z,99.90
2019-02-16T23:10:38.479Z,99.90
2019-02-16T23:13:06.808Z,99.90
2019-02-16T23:15:35.095Z,99.90
2019-02-16T23:18:03.355Z,99.90
2019-02-16T23:20:31.654Z,99.90
2019-02-16T23:22:59.917Z,99.90
2019-02-16T23:25:28.285Z,99.90
2019-02-16T23:27:56.555Z,99.90
2019-02-16T23:30:24.893Z,99.90
2019-02-16T23:32:53.175Z,99.90
2019-02-16T23:35:21.460Z,99.90
2019-02-16T23:37:49.801Z,99.90
2019-02-16T23:40:18.061Z,99.90
2019-02-16T23:42:46.358Z,99.90
2019-02-16T23:45:14.618Z,99.90
2019-02-16T23:47:42.996Z,99.90
2019-02-16T23:50:11.333Z,99.90
2019-02-16T23:52:39.700Z,99.90
2019-02-16T23:55:10.058Z,99.90
2019-02-16T23:57:38.349Z,99.90
